sensor_id;sensor_type;location;lat;lon;timestamp;P1;durP1;ratioP1;P2;durP2;ratioP2
77495;SDS011;66600;48.378;9.948;2023-01-28T00:00:27;35.80;;;15.30;;
77495;SDS011;66600;48.378;9.948;2023-01-28T00:02:52;33.40;;;15.13;;
77495;SDS011;66600;48.378;9.948;2023-01-28T00:05:18;37.45;;;16.38;;
77495;SDS011;66600;48.378;9.948;2023-01-28T00:07:43;39.42;;;16.75;;
77495;SDS011;66600;48.378;9.948;2023-01-28T00:10:09;39.78;;;15.52;;
77495;SDS011;66600;48.378;9.948;2023-01-28T00:12:35;39.78;;;15.32;;
77495;SDS011;66600;48.378;9.948;2023-01-28T00:15:00;39.30;;;15.95;;
77495;SDS011;66600;48.378;9.948;2023-01-28T00:17:25;39.67;;;16.73;;
77495;SDS011;66600;48.378;9.948;2023-01-28T00:19:50;41.70;;;17.92;;
77495;SDS011;66600;48.378;9.948;2023-01-28T00:22:16;44.08;;;17.67;;
77495;SDS011;66600;48.378;9.948;2023-01-28T00:24:41;38.30;;;15.65;;
77495;SDS011;66600;48.378;9.948;2023-01-28T00:27:06;36.17;;;15.00;;
77495;SDS011;66600;48.378;9.948;2023-01-28T00:29:31;41.35;;;16.38;;
77495;SDS011;66600;48.378;9.948;2023-01-28T00:31:57;39.75;;;16.27;;
77495;SDS011;66600;48.378;9.948;2023-01-28T00:34:23;37.67;;;15.98;;
77495;SDS011;66600;48.378;9.948;2023-01-28T00:36:48;37.70;;;16.10;;
77495;SDS011;66600;48.378;9.948;2023-01-28T00:39:21;37.85;;;16.50;;
77495;SDS011;66600;48.378;9.948;2023-01-28T00:41:48;39.28;;;15.73;;
77495;SDS011;66600;48.378;9.948;2023-01-28T00:44:13;39.75;;;15.82;;
77495;SDS011;66600;48.378;9.948;2023-01-28T00:46:38;37.28;;;15.90;;
77495;SDS011;66600;48.378;9.948;2023-01-28T00:49:05;34.72;;;15.38;;
77495;SDS011;66600;48.378;9.948;2023-01-28T00:51:31;34.13;;;15.30;;
77495;SDS011;66600;48.378;9.948;2023-01-28T00:53:56;40.97;;;16.48;;
77495;SDS011;66600;48.378;9.948;2023-01-28T00:56:21;36.88;;;16.67;;
77495;SDS011;66600;48.378;9.948;2023-01-28T00:58:47;35.72;;;15.27;;
77495;SDS011;66600;48.378;9.948;2023-01-28T01:01:22;35.60;;;14.20;;
77495;SDS011;66600;48.378;9.948;2023-01-28T01:03:49;37.95;;;15.82;;
77495;SDS011;66600;48.378;9.948;2023-01-28T01:06:22;35.50;;;15.23;;
77495;SDS011;66600;48.378;9.948;2023-01-28T01:08:48;42.40;;;17.95;;
77495;SDS011;66600;48.378;9.948;2023-01-28T01:11:14;28.65;;;13.70;;
77495;SDS011;66600;48.378;9.948;2023-01-28T01:13:40;39.30;;;15.60;;
77495;SDS011;66600;48.378;9.948;2023-01-28T01:16:10;39.05;;;15.85;;
77495;SDS011;66600;48.378;9.948;2023-01-28T01:18:37;37.25;;;14.38;;
77495;SDS011;66600;48.378;9.948;2023-01-28T01:21:09;39.10;;;15.77;;
77495;SDS011;66600;48.378;9.948;2023-01-28T01:23:36;38.60;;;16.65;;
77495;SDS011;66600;48.378;9.948;2023-01-28T01:26:03;33.92;;;14.98;;
77495;SDS011;66600;48.378;9.948;2023-01-28T01:28:29;37.40;;;15.02;;
77495;SDS011;66600;48.378;9.948;2023-01-28T01:31:27;39.08;;;15.35;;
77495;SDS011;66600;48.378;9.948;2023-01-28T01:33:47;35.83;;;14.23;;
77495;SDS011;66600;48.378;9.948;2023-01-28T01:36:14;35.47;;;14.45;;
77495;SDS011;66600;48.378;9.948;2023-01-28T01:38:41;35.25;;;13.73;;
77495;SDS011;66600;48.378;9.948;2023-01-28T01:41:08;33.50;;;14.30;;
77495;SDS011;66600;48.378;9.948;2023-01-28T01:43:48;34.13;;;15.25;;
77495;SDS011;66600;48.378;9.948;2023-01-28T01:46:20;31.30;;;13.95;;
77495;SDS011;66600;48.378;9.948;2023-01-28T01:49:20;26.65;;;11.10;;
77495;SDS011;66600;48.378;9.948;2023-01-28T01:51:48;31.05;;;13.43;;
77495;SDS011;66600;48.378;9.948;2023-01-28T01:54:17;34.45;;;14.07;;
77495;SDS011;66600;48.378;9.948;2023-01-28T01:56:45;35.95;;;13.65;;
77495;SDS011;66600;48.378;9.948;2023-01-28T01:59:14;32.47;;;12.57;;
77495;SDS011;66600;48.378;9.948;2023-01-28T02:01:45;32.22;;;13.35;;
77495;SDS011;66600;48.378;9.948;2023-01-28T02:04:14;28.65;;;11.55;;
77495;SDS011;66600;48.378;9.948;2023-01-28T02:06:45;28.83;;;12.48;;
77495;SDS011;66600;48.378;9.948;2023-01-28T02:09:22;35.38;;;15.23;;
77495;SDS011;66600;48.378;9.948;2023-01-28T02:11:48;31.20;;;13.25;;
77495;SDS011;66600;48.378;9.948;2023-01-28T02:14:17;28.75;;;11.93;;
77495;SDS011;66600;48.378;9.948;2023-01-28T02:16:43;35.47;;;14.35;;
77495;SDS011;66600;48.378;9.948;2023-01-28T02:19:09;29.08;;;11.40;;
77495;SDS011;66600;48.378;9.948;2023-01-28T02:21:41;35.33;;;14.27;;
77495;SDS011;66600;48.378;9.948;2023-01-28T02:27:23;31.80;;;12.93;;
77495;SDS011;66600;48.378;9.948;2023-01-28T02:29:57;32.15;;;12.55;;
77495;SDS011;66600;48.378;9.948;2023-01-28T02:34:58;28.63;;;13.20;;
77495;SDS011;66600;48.378;9.948;2023-01-28T02:37:37;25.77;;;11.05;;
77495;SDS011;66600;48.378;9.948;2023-01-28T02:40:10;28.65;;;12.07;;
77495;SDS011;66600;48.378;9.948;2023-01-28T02:42:40;26.88;;;11.75;;
77495;SDS011;66600;48.378;9.948;2023-01-28T02:45:11;25.10;;;11.65;;
77495;SDS011;66600;48.378;9.948;2023-01-28T02:47:42;24.95;;;10.95;;
77495;SDS011;66600;48.378;9.948;2023-01-28T02:50:30;26.58;;;11.90;;
77495;SDS011;66600;48.378;9.948;2023-01-28T03:01:24;28.05;;;12.73;;
77495;SDS011;66600;48.378;9.948;2023-01-28T03:04:04;24.23;;;10.55;;
77495;SDS011;66600;48.378;9.948;2023-01-28T03:06:42;22.35;;;10.60;;
77495;SDS011;66600;48.378;9.948;2023-01-28T03:09:09;25.45;;;10.45;;
77495;SDS011;66600;48.378;9.948;2023-01-28T03:11:54;25.08;;;11.48;;
77495;SDS011;66600;48.378;9.948;2023-01-28T03:14:42;26.52;;;11.00;;
77495;SDS011;66600;48.378;9.948;2023-01-28T03:17:38;26.23;;;11.00;;
77495;SDS011;66600;48.378;9.948;2023-01-28T03:20:28;25.58;;;10.50;;
77495;SDS011;66600;48.378;9.948;2023-01-28T03:23:26;24.67;;;11.27;;
77495;SDS011;66600;48.378;9.948;2023-01-28T03:26:15;26.27;;;10.93;;
77495;SDS011;66600;48.378;9.948;2023-01-28T03:31:50;23.63;;;10.68;;
77495;SDS011;66600;48.378;9.948;2023-01-28T03:34:36;23.30;;;10.30;;
77495;SDS011;66600;48.378;9.948;2023-01-28T03:37:20;21.35;;;9.43;;
77495;SDS011;66600;48.378;9.948;2023-01-28T03:39:46;23.33;;;10.85;;
77495;SDS011;66600;48.378;9.948;2023-01-28T03:42:13;27.13;;;11.60;;
77495;SDS011;66600;48.378;9.948;2023-01-28T03:44:39;23.60;;;11.00;;
77495;SDS011;66600;48.378;9.948;2023-01-28T03:47:20;24.25;;;10.93;;
77495;SDS011;66600;48.378;9.948;2023-01-28T03:49:50;25.02;;;10.75;;
77495;SDS011;66600;48.378;9.948;2023-01-28T03:52:18;25.52;;;11.52;;
77495;SDS011;66600;48.378;9.948;2023-01-28T03:54:46;17.58;;;7.95;;
77495;SDS011;66600;48.378;9.948;2023-01-28T03:57:12;20.83;;;8.93;;
77495;SDS011;66600;48.378;9.948;2023-01-28T03:59:39;19.15;;;9.55;;
77495;SDS011;66600;48.378;9.948;2023-01-28T04:02:05;21.77;;;10.45;;
77495;SDS011;66600;48.378;9.948;2023-01-28T04:04:31;22.35;;;10.55;;
77495;SDS011;66600;48.378;9.948;2023-01-28T04:06:57;32.13;;;11.60;;
77495;SDS011;66600;48.378;9.948;2023-01-28T04:09:23;26.60;;;11.55;;
77495;SDS011;66600;48.378;9.948;2023-01-28T04:11:48;26.13;;;12.75;;
77495;SDS011;66600;48.378;9.948;2023-01-28T04:14:14;26.10;;;12.27;;
77495;SDS011;66600;48.378;9.948;2023-01-28T04:16:40;25.90;;;11.10;;
77495;SDS011;66600;48.378;9.948;2023-01-28T04:19:07;24.63;;;11.70;;
77495;SDS011;66600;48.378;9.948;2023-01-28T04:21:32;28.33;;;11.82;;
77495;SDS011;66600;48.378;9.948;2023-01-28T04:23:58;24.48;;;11.18;;
77495;SDS011;66600;48.378;9.948;2023-01-28T04:26:23;26.52;;;11.73;;
77495;SDS011;66600;48.378;9.948;2023-01-28T04:28:49;22.45;;;10.18;;
77495;SDS011;66600;48.378;9.948;2023-01-28T04:31:14;25.77;;;10.82;;
77495;SDS011;66600;48.378;9.948;2023-01-28T04:33:39;27.45;;;11.63;;
77495;SDS011;66600;48.378;9.948;2023-01-28T04:36:05;28.00;;;11.35;;
77495;SDS011;66600;48.378;9.948;2023-01-28T04:38:30;21.75;;;10.23;;
77495;SDS011;66600;48.378;9.948;2023-01-28T04:40:55;27.77;;;11.55;;
77495;SDS011;66600;48.378;9.948;2023-01-28T04:43:20;26.23;;;10.82;;
77495;SDS011;66600;48.378;9.948;2023-01-28T04:45:46;29.67;;;13.18;;
77495;SDS011;66600;48.378;9.948;2023-01-28T04:48:13;29.23;;;12.23;;
77495;SDS011;66600;48.378;9.948;2023-01-28T04:50:39;30.38;;;13.63;;
77495;SDS011;66600;48.378;9.948;2023-01-28T04:53:05;27.50;;;12.05;;
77495;SDS011;66600;48.378;9.948;2023-01-28T04:55:30;27.73;;;12.95;;
77495;SDS011;66600;48.378;9.948;2023-01-28T04:57:56;29.83;;;12.40;;
77495;SDS011;66600;48.378;9.948;2023-01-28T05:00:21;39.92;;;12.40;;
77495;SDS011;66600;48.378;9.948;2023-01-28T05:02:46;30.35;;;12.07;;
77495;SDS011;66600;48.378;9.948;2023-01-28T05:05:12;28.88;;;12.93;;
77495;SDS011;66600;48.378;9.948;2023-01-28T05:07:37;29.65;;;12.60;;
77495;SDS011;66600;48.378;9.948;2023-01-28T05:10:03;30.02;;;12.80;;
77495;SDS011;66600;48.378;9.948;2023-01-28T05:12:29;23.20;;;10.43;;
77495;SDS011;66600;48.378;9.948;2023-01-28T05:14:56;28.55;;;12.85;;
77495;SDS011;66600;48.378;9.948;2023-01-28T05:17:24;27.10;;;11.60;;
77495;SDS011;66600;48.378;9.948;2023-01-28T05:19:50;30.75;;;12.68;;
77495;SDS011;66600;48.378;9.948;2023-01-28T05:22:15;27.70;;;12.82;;
77495;SDS011;66600;48.378;9.948;2023-01-28T05:24:40;27.83;;;12.20;;
77495;SDS011;66600;48.378;9.948;2023-01-28T05:27:06;33.55;;;14.27;;
77495;SDS011;66600;48.378;9.948;2023-01-28T05:29:31;22.63;;;10.32;;
77495;SDS011;66600;48.378;9.948;2023-01-28T05:31:56;29.45;;;12.25;;
77495;SDS011;66600;48.378;9.948;2023-01-28T05:34:22;26.63;;;12.07;;
77495;SDS011;66600;48.378;9.948;2023-01-28T05:36:47;26.38;;;11.23;;
77495;SDS011;66600;48.378;9.948;2023-01-28T05:39:12;30.02;;;12.70;;
77495;SDS011;66600;48.378;9.948;2023-01-28T05:41:38;34.25;;;14.32;;
77495;SDS011;66600;48.378;9.948;2023-01-28T05:44:03;33.78;;;14.13;;
77495;SDS011;66600;48.378;9.948;2023-01-28T05:46:29;28.27;;;12.15;;
77495;SDS011;66600;48.378;9.948;2023-01-28T05:48:54;27.63;;;12.45;;
77495;SDS011;66600;48.378;9.948;2023-01-28T05:51:19;29.10;;;11.57;;
77495;SDS011;66600;48.378;9.948;2023-01-28T05:53:45;31.88;;;13.48;;
77495;SDS011;66600;48.378;9.948;2023-01-28T05:56:10;34.55;;;13.75;;
77495;SDS011;66600;48.378;9.948;2023-01-28T05:58:35;29.15;;;12.50;;
77495;SDS011;66600;48.378;9.948;2023-01-28T06:01:00;32.38;;;13.18;;
77495;SDS011;66600;48.378;9.948;2023-01-28T06:03:26;32.10;;;12.95;;
77495;SDS011;66600;48.378;9.948;2023-01-28T06:05:51;35.03;;;13.40;;
77495;SDS011;66600;48.378;9.948;2023-01-28T06:08:16;28.42;;;11.70;;
77495;SDS011;66600;48.378;9.948;2023-01-28T06:10:42;31.52;;;12.55;;
77495;SDS011;66600;48.378;9.948;2023-01-28T06:13:07;30.52;;;13.18;;
77495;SDS011;66600;48.378;9.948;2023-01-28T06:15:32;27.02;;;12.88;;
77495;SDS011;66600;48.378;9.948;2023-01-28T06:17:58;25.98;;;11.60;;
77495;SDS011;66600;48.378;9.948;2023-01-28T06:20:23;31.05;;;12.75;;
77495;SDS011;66600;48.378;9.948;2023-01-28T06:22:52;29.15;;;12.18;;
77495;SDS011;66600;48.378;9.948;2023-01-28T06:25:17;32.33;;;13.80;;
77495;SDS011;66600;48.378;9.948;2023-01-28T06:27:43;31.50;;;13.52;;
77495;SDS011;66600;48.378;9.948;2023-01-28T06:30:08;31.45;;;13.35;;
77495;SDS011;66600;48.378;9.948;2023-01-28T06:32:34;36.05;;;13.48;;
77495;SDS011;66600;48.378;9.948;2023-01-28T06:35:00;30.00;;;13.30;;
77495;SDS011;66600;48.378;9.948;2023-01-28T06:37:25;30.02;;;12.90;;
77495;SDS011;66600;48.378;9.948;2023-01-28T06:39:50;39.28;;;13.85;;
77495;SDS011;66600;48.378;9.948;2023-01-28T06:42:16;32.85;;;14.73;;
77495;SDS011;66600;48.378;9.948;2023-01-28T06:44:41;32.55;;;13.32;;
77495;SDS011;66600;48.378;9.948;2023-01-28T06:47:06;29.42;;;13.60;;
77495;SDS011;66600;48.378;9.948;2023-01-28T06:49:33;31.75;;;13.15;;
77495;SDS011;66600;48.378;9.948;2023-01-28T06:51:58;33.67;;;16.35;;
77495;SDS011;66600;48.378;9.948;2023-01-28T06:54:23;30.95;;;13.13;;
77495;SDS011;66600;48.378;9.948;2023-01-28T06:56:49;28.60;;;13.05;;
77495;SDS011;66600;48.378;9.948;2023-01-28T06:59:14;35.08;;;15.02;;
77495;SDS011;66600;48.378;9.948;2023-01-28T07:01:39;29.98;;;12.25;;
77495;SDS011;66600;48.378;9.948;2023-01-28T07:04:04;28.30;;;13.48;;
77495;SDS011;66600;48.378;9.948;2023-01-28T07:06:30;30.65;;;11.70;;
77495;SDS011;66600;48.378;9.948;2023-01-28T07:08:55;32.80;;;13.63;;
77495;SDS011;66600;48.378;9.948;2023-01-28T07:11:20;27.77;;;12.55;;
77495;SDS011;66600;48.378;9.948;2023-01-28T07:13:46;27.63;;;12.52;;
77495;SDS011;66600;48.378;9.948;2023-01-28T07:16:12;28.40;;;12.85;;
77495;SDS011;66600;48.378;9.948;2023-01-28T07:18:37;32.13;;;13.70;;
77495;SDS011;66600;48.378;9.948;2023-01-28T07:21:03;25.85;;;12.32;;
77495;SDS011;66600;48.378;9.948;2023-01-28T07:23:28;28.70;;;12.23;;
77495;SDS011;66600;48.378;9.948;2023-01-28T07:25:53;25.45;;;10.65;;
77495;SDS011;66600;48.378;9.948;2023-01-28T07:28:19;26.63;;;12.00;;
77495;SDS011;66600;48.378;9.948;2023-01-28T07:30:48;25.23;;;12.43;;
77495;SDS011;66600;48.378;9.948;2023-01-28T07:33:14;27.52;;;11.57;;
77495;SDS011;66600;48.378;9.948;2023-01-28T07:35:39;31.38;;;14.57;;
77495;SDS011;66600;48.378;9.948;2023-01-28T07:38:05;28.40;;;13.10;;
77495;SDS011;66600;48.378;9.948;2023-01-28T07:40:30;29.65;;;12.80;;
77495;SDS011;66600;48.378;9.948;2023-01-28T07:42:55;30.92;;;12.70;;
77495;SDS011;66600;48.378;9.948;2023-01-28T07:45:24;30.35;;;13.45;;
77495;SDS011;66600;48.378;9.948;2023-01-28T07:47:56;33.80;;;14.25;;
77495;SDS011;66600;48.378;9.948;2023-01-28T07:50:24;30.73;;;13.65;;
77495;SDS011;66600;48.378;9.948;2023-01-28T07:52:49;34.15;;;13.82;;
77495;SDS011;66600;48.378;9.948;2023-01-28T07:55:15;34.47;;;14.77;;
77495;SDS011;66600;48.378;9.948;2023-01-28T07:57:56;31.23;;;14.60;;
77495;SDS011;66600;48.378;9.948;2023-01-28T08:00:24;29.83;;;14.02;;
77495;SDS011;66600;48.378;9.948;2023-01-28T08:02:54;33.60;;;14.75;;
77495;SDS011;66600;48.378;9.948;2023-01-28T08:05:23;32.20;;;14.57;;
77495;SDS011;66600;48.378;9.948;2023-01-28T08:07:51;35.83;;;16.08;;
77495;SDS011;66600;48.378;9.948;2023-01-28T08:10:16;32.70;;;14.18;;
77495;SDS011;66600;48.378;9.948;2023-01-28T08:12:53;34.22;;;14.82;;
77495;SDS011;66600;48.378;9.948;2023-01-28T08:15:20;29.02;;;14.10;;
77495;SDS011;66600;48.378;9.948;2023-01-28T08:17:46;31.40;;;14.02;;
77495;SDS011;66600;48.378;9.948;2023-01-28T08:20:11;30.60;;;14.02;;
77495;SDS011;66600;48.378;9.948;2023-01-28T08:22:38;33.35;;;14.48;;
77495;SDS011;66600;48.378;9.948;2023-01-28T08:25:03;32.10;;;15.57;;
77495;SDS011;66600;48.378;9.948;2023-01-28T08:27:29;32.05;;;14.43;;
77495;SDS011;66600;48.378;9.948;2023-01-28T08:29:54;30.27;;;14.05;;
77495;SDS011;66600;48.378;9.948;2023-01-28T08:32:19;31.48;;;14.43;;
77495;SDS011;66600;48.378;9.948;2023-01-28T08:34:44;33.17;;;14.52;;
77495;SDS011;66600;48.378;9.948;2023-01-28T08:37:10;31.00;;;13.75;;
77495;SDS011;66600;48.378;9.948;2023-01-28T08:39:35;29.10;;;13.80;;
77495;SDS011;66600;48.378;9.948;2023-01-28T08:42:00;26.73;;;11.43;;
77495;SDS011;66600;48.378;9.948;2023-01-28T08:44:26;27.60;;;13.45;;
77495;SDS011;66600;48.378;9.948;2023-01-28T08:46:51;27.05;;;12.90;;
77495;SDS011;66600;48.378;9.948;2023-01-28T08:49:16;29.52;;;13.25;;
77495;SDS011;66600;48.378;9.948;2023-01-28T08:51:42;25.05;;;12.23;;
77495;SDS011;66600;48.378;9.948;2023-01-28T08:54:07;26.52;;;12.25;;
77495;SDS011;66600;48.378;9.948;2023-01-28T08:56:32;22.30;;;10.45;;
77495;SDS011;66600;48.378;9.948;2023-01-28T08:58:57;26.27;;;12.95;;
77495;SDS011;66600;48.378;9.948;2023-01-28T09:01:23;21.20;;;11.13;;
77495;SDS011;66600;48.378;9.948;2023-01-28T09:03:50;25.05;;;12.05;;
77495;SDS011;66600;48.378;9.948;2023-01-28T09:06:15;26.90;;;13.18;;
77495;SDS011;66600;48.378;9.948;2023-01-28T09:08:40;29.23;;;14.10;;
77495;SDS011;66600;48.378;9.948;2023-01-28T09:11:05;25.35;;;12.18;;
77495;SDS011;66600;48.378;9.948;2023-01-28T09:13:31;30.77;;;13.18;;
77495;SDS011;66600;48.378;9.948;2023-01-28T09:15:56;27.10;;;11.98;;
77495;SDS011;66600;48.378;9.948;2023-01-28T09:18:21;24.38;;;12.48;;
77495;SDS011;66600;48.378;9.948;2023-01-28T09:20:47;24.92;;;11.88;;
77495;SDS011;66600;48.378;9.948;2023-01-28T09:23:12;28.55;;;12.73;;
77495;SDS011;66600;48.378;9.948;2023-01-28T09:25:38;27.38;;;12.98;;
77495;SDS011;66600;48.378;9.948;2023-01-28T09:28:03;25.08;;;11.65;;
77495;SDS011;66600;48.378;9.948;2023-01-28T09:30:29;26.13;;;11.90;;
77495;SDS011;66600;48.378;9.948;2023-01-28T09:32:56;26.50;;;11.82;;
77495;SDS011;66600;48.378;9.948;2023-01-28T09:35:22;25.30;;;11.75;;
77495;SDS011;66600;48.378;9.948;2023-01-28T09:37:48;30.95;;;13.65;;
77495;SDS011;66600;48.378;9.948;2023-01-28T09:40:18;20.50;;;10.77;;
77495;SDS011;66600;48.378;9.948;2023-01-28T09:42:52;20.30;;;10.80;;
77495;SDS011;66600;48.378;9.948;2023-01-28T09:48:13;23.33;;;11.20;;
77495;SDS011;66600;48.378;9.948;2023-01-28T09:50:43;24.70;;;10.65;;
77495;SDS011;66600;48.378;9.948;2023-01-28T09:53:21;25.15;;;12.30;;
77495;SDS011;66600;48.378;9.948;2023-01-28T09:55:55;19.73;;;10.63;;
77495;SDS011;66600;48.378;9.948;2023-01-28T09:58:28;21.98;;;10.68;;
77495;SDS011;66600;48.378;9.948;2023-01-28T10:17:55;18.00;;;9.15;;
77495;SDS011;66600;48.378;9.948;2023-01-28T10:20:27;23.65;;;11.38;;
77495;SDS011;66600;48.378;9.948;2023-01-28T10:22:59;23.90;;;11.13;;
77495;SDS011;66600;48.378;9.948;2023-01-28T10:25:35;22.90;;;11.00;;
77495;SDS011;66600;48.378;9.948;2023-01-28T10:28:01;19.83;;;9.95;;
77495;SDS011;66600;48.378;9.948;2023-01-28T10:30:29;22.52;;;10.18;;
77495;SDS011;66600;48.378;9.948;2023-01-28T10:33:00;20.13;;;10.05;;
77495;SDS011;66600;48.378;9.948;2023-01-28T10:35:30;19.70;;;9.23;;
77495;SDS011;66600;48.378;9.948;2023-01-28T10:38:02;19.30;;;10.35;;
77495;SDS011;66600;48.378;9.948;2023-01-28T10:40:31;18.88;;;9.50;;
77495;SDS011;66600;48.378;9.948;2023-01-28T10:42:56;20.23;;;9.95;;
77495;SDS011;66600;48.378;9.948;2023-01-28T10:45:23;20.60;;;10.07;;
77495;SDS011;66600;48.378;9.948;2023-01-28T10:47:53;21.80;;;10.40;;
77495;SDS011;66600;48.378;9.948;2023-01-28T10:50:24;21.70;;;9.73;;
77495;SDS011;66600;48.378;9.948;2023-01-28T10:53:02;19.08;;;9.85;;
77495;SDS011;66600;48.378;9.948;2023-01-28T10:55:30;21.33;;;10.18;;
77495;SDS011;66600;48.378;9.948;2023-01-28T10:58:11;21.20;;;10.57;;
77495;SDS011;66600;48.378;9.948;2023-01-28T11:00:42;19.83;;;9.73;;
77495;SDS011;66600;48.378;9.948;2023-01-28T11:03:15;19.48;;;10.30;;
77495;SDS011;66600;48.378;9.948;2023-01-28T11:05:48;20.50;;;9.48;;
77495;SDS011;66600;48.378;9.948;2023-01-28T11:08:16;18.92;;;9.80;;
77495;SDS011;66600;48.378;9.948;2023-01-28T11:10:42;19.25;;;9.38;;
77495;SDS011;66600;48.378;9.948;2023-01-28T11:13:27;17.90;;;9.82;;
77495;SDS011;66600;48.378;9.948;2023-01-28T11:16:01;16.98;;;8.98;;
77495;SDS011;66600;48.378;9.948;2023-01-28T11:18:29;17.77;;;10.15;;
77495;SDS011;66600;48.378;9.948;2023-01-28T11:20:56;17.33;;;8.90;;
77495;SDS011;66600;48.378;9.948;2023-01-28T11:23:25;19.80;;;9.60;;
77495;SDS011;66600;48.378;9.948;2023-01-28T11:26:26;16.00;;;8.20;;
77495;SDS011;66600;48.378;9.948;2023-01-28T11:28:48;16.40;;;8.60;;
77495;SDS011;66600;48.378;9.948;2023-01-28T11:31:15;17.23;;;9.00;;
77495;SDS011;66600;48.378;9.948;2023-01-28T11:33:43;16.65;;;8.65;;
77495;SDS011;66600;48.378;9.948;2023-01-28T11:36:13;16.88;;;8.88;;
77495;SDS011;66600;48.378;9.948;2023-01-28T11:38:47;16.20;;;8.68;;
77495;SDS011;66600;48.378;9.948;2023-01-28T11:41:13;19.45;;;9.65;;
77495;SDS011;66600;48.378;9.948;2023-01-28T11:43:40;18.08;;;9.05;;
77495;SDS011;66600;48.378;9.948;2023-01-28T12:05:30;19.73;;;9.27;;
77495;SDS011;66600;48.378;9.948;2023-01-28T12:10:53;16.50;;;7.95;;
77495;SDS011;66600;48.378;9.948;2023-01-28T12:16:30;16.27;;;8.93;;
77495;SDS011;66600;48.378;9.948;2023-01-28T12:19:45;16.08;;;8.45;;
77495;SDS011;66600;48.378;9.948;2023-01-28T12:24:43;15.87;;;8.23;;
77495;SDS011;66600;48.378;9.948;2023-01-28T12:27:24;19.65;;;9.80;;
77495;SDS011;66600;48.378;9.948;2023-01-28T12:30:05;19.90;;;10.95;;
77495;SDS011;66600;48.378;9.948;2023-01-28T12:35:50;18.02;;;8.75;;
77495;SDS011;66600;48.378;9.948;2023-01-28T12:38:36;15.00;;;7.90;;
77495;SDS011;66600;48.378;9.948;2023-01-28T12:41:14;19.52;;;10.18;;
77495;SDS011;66600;48.378;9.948;2023-01-28T12:44:01;18.00;;;9.35;;
77495;SDS011;66600;48.378;9.948;2023-01-28T12:49:28;16.98;;;8.32;;
77495;SDS011;66600;48.378;9.948;2023-01-28T12:57:23;18.95;;;10.20;;
77495;SDS011;66600;48.378;9.948;2023-01-28T12:59:53;15.90;;;9.10;;
77495;SDS011;66600;48.378;9.948;2023-01-28T13:02:39;17.42;;;9.75;;
77495;SDS011;66600;48.378;9.948;2023-01-28T13:05:13;18.10;;;9.32;;
77495;SDS011;66600;48.378;9.948;2023-01-28T13:10:18;21.10;;;9.73;;
77495;SDS011;66600;48.378;9.948;2023-01-28T13:12:49;19.77;;;10.40;;
77495;SDS011;66600;48.378;9.948;2023-01-28T13:15:15;17.55;;;9.48;;
77495;SDS011;66600;48.378;9.948;2023-01-28T13:18:02;17.88;;;9.30;;
77495;SDS011;66600;48.378;9.948;2023-01-28T13:20:33;17.42;;;9.40;;
77495;SDS011;66600;48.378;9.948;2023-01-28T13:23:02;18.73;;;9.90;;
77495;SDS011;66600;48.378;9.948;2023-01-28T13:25:32;19.35;;;9.70;;
77495;SDS011;66600;48.378;9.948;2023-01-28T13:28:21;20.95;;;9.90;;
77495;SDS011;66600;48.378;9.948;2023-01-28T13:30:50;16.90;;;9.70;;
77495;SDS011;66600;48.378;9.948;2023-01-28T13:33:28;20.35;;;10.23;;
77495;SDS011;66600;48.378;9.948;2023-01-28T13:35:55;17.40;;;9.77;;
77495;SDS011;66600;48.378;9.948;2023-01-28T13:38:21;17.55;;;8.82;;
77495;SDS011;66600;48.378;9.948;2023-01-28T13:40:58;20.50;;;10.05;;
77495;SDS011;66600;48.378;9.948;2023-01-28T13:46:03;22.65;;;11.32;;
77495;SDS011;66600;48.378;9.948;2023-01-28T13:48:32;20.58;;;10.20;;
77495;SDS011;66600;48.378;9.948;2023-01-28T13:51:08;17.95;;;9.45;;
77495;SDS011;66600;48.378;9.948;2023-01-28T13:56:19;21.65;;;10.05;;
77495;SDS011;66600;48.378;9.948;2023-01-28T13:59:09;18.95;;;10.23;;
77495;SDS011;66600;48.378;9.948;2023-01-28T14:02:09;20.10;;;10.13;;
77495;SDS011;66600;48.378;9.948;2023-01-28T14:04:45;19.98;;;10.18;;
77495;SDS011;66600;48.378;9.948;2023-01-28T14:07:19;21.75;;;11.00;;
77495;SDS011;66600;48.378;9.948;2023-01-28T14:15:24;21.25;;;10.38;;
77495;SDS011;66600;48.378;9.948;2023-01-28T14:18:14;19.02;;;9.50;;
77495;SDS011;66600;48.378;9.948;2023-01-28T14:21:00;20.67;;;10.82;;
77495;SDS011;66600;48.378;9.948;2023-01-28T14:23:26;19.58;;;10.38;;
77495;SDS011;66600;48.378;9.948;2023-01-28T14:28:45;21.60;;;10.65;;
77495;SDS011;66600;48.378;9.948;2023-01-28T14:31:23;21.65;;;10.35;;
77495;SDS011;66600;48.378;9.948;2023-01-28T14:33:52;20.73;;;10.18;;
77495;SDS011;66600;48.378;9.948;2023-01-28T14:36:18;19.50;;;10.43;;
77495;SDS011;66600;48.378;9.948;2023-01-28T14:38:44;19.90;;;9.90;;
77495;SDS011;66600;48.378;9.948;2023-01-28T14:41:17;19.42;;;9.32;;
77495;SDS011;66600;48.378;9.948;2023-01-28T14:43:47;18.33;;;8.73;;
77495;SDS011;66600;48.378;9.948;2023-01-28T14:46:17;19.90;;;10.38;;
77495;SDS011;66600;48.378;9.948;2023-01-28T14:51:31;21.33;;;11.20;;
77495;SDS011;66600;48.378;9.948;2023-01-28T14:54:10;24.38;;;10.95;;
77495;SDS011;66600;48.378;9.948;2023-01-28T14:57:15;24.98;;;12.38;;
77495;SDS011;66600;48.378;9.948;2023-01-28T14:59:50;29.58;;;13.77;;
77495;SDS011;66600;48.378;9.948;2023-01-28T15:02:22;19.80;;;10.07;;
77495;SDS011;66600;48.378;9.948;2023-01-28T15:04:50;19.13;;;10.50;;
77495;SDS011;66600;48.378;9.948;2023-01-28T15:07:25;20.60;;;10.43;;
77495;SDS011;66600;48.378;9.948;2023-01-28T15:09:58;21.95;;;10.50;;
77495;SDS011;66600;48.378;9.948;2023-01-28T15:12:28;25.92;;;14.45;;
77495;SDS011;66600;48.378;9.948;2023-01-28T15:14:56;21.17;;;11.20;;
77495;SDS011;66600;48.378;9.948;2023-01-28T15:17:24;19.70;;;9.93;;
77495;SDS011;66600;48.378;9.948;2023-01-28T15:19:52;21.42;;;11.05;;
77495;SDS011;66600;48.378;9.948;2023-01-28T15:22:19;28.70;;;13.82;;
77495;SDS011;66600;48.378;9.948;2023-01-28T15:24:49;24.23;;;11.15;;
77495;SDS011;66600;48.378;9.948;2023-01-28T15:27:16;26.70;;;12.38;;
77495;SDS011;66600;48.378;9.948;2023-01-28T15:29:50;22.87;;;11.40;;
77495;SDS011;66600;48.378;9.948;2023-01-28T15:32:21;23.52;;;11.13;;
77495;SDS011;66600;48.378;9.948;2023-01-28T15:34:49;23.80;;;11.70;;
77495;SDS011;66600;48.378;9.948;2023-01-28T15:37:15;22.15;;;9.90;;
77495;SDS011;66600;48.378;9.948;2023-01-28T15:39:41;26.23;;;12.63;;
77495;SDS011;66600;48.378;9.948;2023-01-28T15:42:06;24.20;;;11.07;;
77495;SDS011;66600;48.378;9.948;2023-01-28T15:44:32;25.65;;;10.80;;
77495;SDS011;66600;48.378;9.948;2023-01-28T15:47:04;29.88;;;12.90;;
77495;SDS011;66600;48.378;9.948;2023-01-28T15:49:40;26.42;;;11.93;;
77495;SDS011;66600;48.378;9.948;2023-01-28T15:52:08;28.08;;;13.27;;
77495;SDS011;66600;48.378;9.948;2023-01-28T15:54:38;28.50;;;14.18;;
77495;SDS011;66600;48.378;9.948;2023-01-28T15:57:09;27.90;;;13.75;;
77495;SDS011;66600;48.378;9.948;2023-01-28T15:59:44;24.75;;;11.80;;
77495;SDS011;66600;48.378;9.948;2023-01-28T16:04:41;30.30;;;15.90;;
77495;SDS011;66600;48.378;9.948;2023-01-28T16:07:06;26.50;;;13.15;;
77495;SDS011;66600;48.378;9.948;2023-01-28T16:09:32;24.58;;;12.35;;
77495;SDS011;66600;48.378;9.948;2023-01-28T16:12:05;27.50;;;12.57;;
77495;SDS011;66600;48.378;9.948;2023-01-28T16:14:44;25.42;;;12.00;;